Archival Weather

Chicago O'hare International

Chicago O'hare International, Illinois (KORD)

Report from: Saturday, May 14, 2022 8:51 AM CDT
Current time: Monday, May 23, 2022 4:27 AM CDT

Current weather
Weather history
Weather forecast

Temperature23.3°C (73.9°F)
Dew point15.0°C (59.0°F)
Winds 8 kts (4.1 m/s, 9.2 mph) North (350°)
Visibility10 mi. (16.1 km)
Clouds Few clouds 5,000 ft. (1,524 m)
Ceiling: Overcast 11,000 ft. (3,353 m)
Altimeter29.94 in.Hg (1014 mB)
Relative humidity60 %
Density altitude1,179 ft. (359 m)
Sea-level pressure101.3 kPa (1013 mB, 29.93 in.Hg)
Remarks Automated weather observing station with precipitation discriminator
Flight conditions Visual Meteorological Conditions
Raw dataKORD 141351Z 35008KT 10SM FEW050 OVC110 23/15 A2994 RMK AO2 SLP134 T02330150
An error has occurred. This application may no longer respond until reloaded. Reload 🗙